Latest Weather Observations for Deniliquin

IDN60801

Issued at 4:35 pm EDT Thursday 27 November 2014 (issued every 30 minutes, with the page automatically refreshed every 10 minutes)

About weather observations | Map of weather stations | Latest weather observations for NSW | Other Formats
Station Details ID: 074258 Name: DENILIQUIN AIRPORT AWS Lat: -35.56 Lon: 144.95 Height: 94.0 m
Data from the previous 72 hours. | See also: Recent months at Deniliquin
Date/Time
EDT
Temp
°C
App
Temp
°C
Dew
Point
Rel
Hum
%
Delta-T
°C
Wind Press
QNH
hPa
Press
MSL
hPa
Rain
since 9 am
mm
Dir
 
Spd
km/h
Gust
km/h
Spd
kts
Gust
kts
27/04:30pm 27.5 21.7 -1.4 15 13.2 SSW 19 26 10 14 1018.6 1018.3 0.0
27/04:00pm 27.4 22.4 -1.5 15 13.2 SSW 15 22 8 12 1019.0 1018.7 0.0
27/03:30pm 27.0 21.0 -2.7 14 13.3 S 19 28 10 15 1019.2 1018.9 0.0
27/03:00pm 26.5 20.3 -3.1 14 13.0 SSE 20 33 11 18 1019.4 1019.1 0.0
27/02:30pm 26.1 20.4 -0.8 17 12.4 SSE 19 24 10 13 1019.6 1019.3 0.0
27/02:00pm 25.8 20.4 1.2 20 11.7 S 19 30 10 16 1020.1 1019.8 0.0
27/01:30pm 24.5 20.6 1.4 22 10.9 SSW 11 19 6 10 1020.5 1020.2 0.0
27/01:00pm 23.4 20.8 3.4 27 9.7 WSW 6 15 3 8 1020.9 1020.6 0.0
27/12:30pm 22.5 19.0 3.6 29 9.2 S 11 19 6 10 1021.3 1021.0 0.0
27/12:00pm 21.8 17.9 3.5 30 8.8 S 13 22 7 12 1021.6 1021.4 0.0
27/11:30am 21.0 17.2 4.1 33 8.2 S 13 24 7 13 1022.0 1021.8 0.0
27/11:00am 19.5 15.9 4.8 38 7.1 SSW 13 19 7 10 1022.1 1021.9 0.0
27/10:30am 18.1 13.9 3.9 39 6.7 S 15 20 8 11 1022.3 1022.1 0.0
27/10:00am 17.2 13.6 4.9 44 5.9 S 13 22 7 12 1022.5 1022.3 0.0
27/09:30am 16.1 11.8 5.1 48 5.2 S 17 22 9 12 1022.5 1022.3 0.0
27/09:00am 15.0 10.6 4.7 50 4.8 S 17 24 9 13 1022.5 1022.3 0.0
27/08:30am 14.5 10.2 5.3 54 4.4 S 17 24 9 13 1022.4 1022.2 0.0
27/08:00am 13.4 8.8 5.6 59 3.7 S 19 24 10 13 1022.1 1021.9 0.0
27/07:30am 11.8 8.0 5.9 67 2.8 SSW 15 20 8 11 1022.0 1021.8 0.0
27/07:00am 10.8 6.3 6.2 73 2.1 SSW 19 24 10 13 1021.8 1021.6 0.0
27/06:30am 9.9 6.3 6.6 80 1.5 SSW 15 19 8 10 1021.7 1021.5 0.0
27/06:00am 9.7 7.0 7.3 85 1.1 SW 11 15 6 8 1021.5 1021.2 0.0
27/05:30am 10.6 6.8 7.5 81 1.5 SSW 17 20 9 11 1021.2 1020.9 0.0
27/05:00am 11.3 7.4 7.2 76 2.0 S 17 22 9 12 1021.1 1020.8 0.0
27/04:30am 11.6 7.4 7.3 75 2.1 S 19 22 10 12 1020.9 1020.6 0.0
27/04:00am 11.9 7.7 7.6 75 2.1 S 19 26 10 14 1020.9 1020.6 0.0
27/03:30am 12.2 8.0 8.1 76 2.0 S 20 24 11 13 1020.8 1020.5 0.0
27/03:00am 12.5 8.4 8.6 77 1.9 S 20 26 11 14 1020.6 1020.3 0.0
27/02:30am 13.1 9.1 9.0 76 2.1 S 20 28 11 15 1020.8 1020.5 0.0
27/02:00am 13.7 9.3 9.0 73 2.4 S 22 32 12 17 1020.8 1020.5 0.0
27/01:30am 14.3 10.0 9.5 73 2.5 S 22 28 12 15 1020.9 1020.6 0.0
27/01:00am 14.9 11.1 9.7 71 2.7 S 20 24 11 13 1020.9 1020.6 0.0
27/12:30am 15.5 11.6 9.6 68 3.1 S 20 32 11 17 1021.2 1020.9 0.0
27/12:00am 16.3 11.9 9.0 62 3.8 S 22 30 12 16 1021.2 1020.9 0.0
 
Date/Time
EDT
Temp
°C
App
Temp
°C
Dew
Point
Rel
Hum
%
Delta-T
°C
Wind Press
QNH
hPa
Press
MSL
hPa
Rain
since 9 am
mm
Dir
 
Spd
km/h
Gust
km/h
Spd
kts
Gust
kts
26/11:30pm 17.1 12.5 8.3 56 4.5 S 22 28 12 15 1021.1 1020.8 0.0
26/11:00pm 17.7 13.4 8.0 53 4.9 S 20 24 11 13 1021.0 1020.7 0.0
26/10:30pm 18.3 14.0 8.0 51 5.3 S 20 30 11 16 1020.9 1020.6 0.0
26/10:00pm 18.8 14.8 8.2 50 5.5 S 19 24 10 13 1020.5 1020.2 0.0
26/09:30pm 19.8 14.4 8.2 47 6.0 S 26 33 14 18 1020.1 1019.8 0.0
26/09:00pm 20.7 15.2 7.7 43 6.7 S 26 35 14 19 1019.6 1019.3 0.0
26/08:30pm 21.5 16.9 6.6 38 7.6 S 20 26 11 14 1019.2 1018.9 0.0
26/08:00pm 22.5 18.2 5.4 33 8.6 SSW 17 24 9 13 1018.8 1018.5 0.0
26/07:30pm 23.7 18.8 5.1 30 9.4 S 20 28 11 15 1018.7 1018.4 0.0
26/07:00pm 24.3 18.4 4.1 27 10.0 S 24 35 13 19 1018.4 1018.1 0.0
26/06:30pm 24.7 19.2 3.9 26 10.3 SSW 22 32 12 17 1018.1 1017.8 0.0
26/06:00pm 25.0 18.3 3.6 25 10.5 S 28 35 15 19 1018.0 1017.7 0.0
26/05:30pm 25.1 19.2 3.7 25 10.6 SSW 24 35 13 19 1018.0 1017.7 0.0
26/05:00pm 25.5 18.4 3.5 24 10.9 SSW 30 43 16 23 1018.0 1017.7 0.0
26/04:30pm 24.7 19.3 2.2 23 10.8 SW 20 32 11 17 1018.1 1017.8 0.0
26/04:00pm 24.2 18.1 0.5 21 11.0 SW 22 37 12 20 1018.5 1018.2 0.0
26/03:30pm 24.0 18.4 3.3 26 10.1 WSW 22 33 12 18 1018.8 1018.5 0.0
26/03:00pm 23.9 17.7 2.1 24 10.4 SW 24 33 13 18 1019.1 1018.8 0.0
26/02:30pm 23.6 18.2 2.4 25 10.1 SW 20 30 11 16 1019.4 1019.1 0.0
26/02:00pm 23.1 17.7 2.6 26 9.8 SW 20 33 11 18 1019.7 1019.4 0.0
26/01:30pm 22.8 17.0 4.3 30 9.1 SW 24 32 13 17 1020.1 1019.8 0.0
26/01:00pm 22.3 16.9 4.4 31 8.8 WSW 22 30 12 16 1020.4 1020.1 0.0
26/12:30pm 21.2 16.1 3.9 32 8.4 WSW 20 32 11 17 1020.6 1020.3 0.0
26/12:00pm 21.0 16.0 4.6 34 8.0 WSW 20 30 11 16 1020.9 1020.6 0.0
26/11:30am 21.2 16.6 6.3 38 7.5 SSW 20 26 11 14 1021.1 1020.8 0.0
26/11:00am 20.2 15.5 5.1 37 7.4 WSW 19 28 10 15 1021.0 1020.7 0.0
26/10:30am 19.9 15.7 5.9 40 7.0 SSW 17 24 9 13 1020.9 1020.6 0.0
26/10:00am 19.2 16.8 7.0 45 6.2 S 9 15 5 8 1020.9 1020.6 0.0
26/09:30am 17.9 14.6 6.4 47 5.7 SSW 13 19 7 10 1020.9 1020.6 0.0
26/09:00am 17.2 13.7 7.3 52 5.0 S 15 19 8 10 1021.0 1020.7 0.2
26/08:30am 15.7 11.8 7.2 57 4.2 SSE 17 22 9 12 1020.7 1020.4 0.2
26/08:00am 14.7 10.9 7.7 63 3.5 S 17 20 9 11 1020.6 1020.3 0.2
26/07:30am 13.0 10.6 8.7 75 2.2 S 11 13 6 7 1020.6 1020.3 0.2
26/07:00am 11.4 9.1 9.0 85 1.2 SW 11 13 6 7 1020.5 1020.2 0.2
26/06:30am 10.1 8.1 8.5 90 0.8 SW 9 11 5 6 1020.1 1019.8 0.2
26/06:00am 9.7 7.2 8.1 90 0.8 SW 11 11 6 6 1019.9 1019.6 0.2
26/05:30am 9.9 7.7 7.7 86 1.1 SW 9 9 5 5 1019.5 1019.2 0.2
26/05:00am 10.9 8.6 7.6 80 1.6 S 9 13 5 7 1019.2 1018.9 0.2
26/04:30am 11.5 8.9 7.6 77 1.9 S 11 15 6 8 1019.1 1018.8 0.2
26/04:00am 11.9 9.3 7.6 75 2.1 S 11 15 6 8 1018.7 1018.4 0.2
26/03:30am 12.4 9.0 7.5 72 2.4 S 15 20 8 11 1018.7 1018.4 0.2
26/03:00am 12.6 8.8 7.5 71 2.5 S 17 22 9 12 1018.6 1018.3 0.2
26/02:30am 12.5 9.0 7.4 71 2.5 S 15 20 8 11 1018.8 1018.5 0.2
26/02:00am 11.5 9.0 8.0 79 1.7 SW 11 13 6 7 1018.9 1018.6 0.2
26/01:30am 12.2 9.2 7.9 75 2.1 SW 13 15 7 8 1019.0 1018.7 0.2
26/01:00am 12.8 10.8 8.7 76 2.1 W 9 11 5 6 1019.2 1018.9 0.2
26/12:30am 13.2 11.7 9.3 77 2.0 WNW 7 9 4 5 1019.4 1019.1 0.2
26/12:00am 13.7 11.8 9.2 74 2.3 WNW 9 9 5 5 1019.6 1019.3 0.2
 
Date/Time
EDT
Temp
°C
App
Temp
°C
Dew
Point
Rel
Hum
%
Delta-T
°C
Wind Press
QNH
hPa
Press
MSL
hPa
Rain
since 9 am
mm
Dir
 
Spd
km/h
Gust
km/h
Spd
kts
Gust
kts
25/11:30pm 14.2 12.8 9.4 73 2.5 WNW 7 9 4 5 1019.7 1019.4 0.2
25/11:00pm 15.2 14.9 8.7 65 3.3 CALM 0 0 0 0 1019.7 1019.4 0.2
25/10:30pm 15.8 15.6 9.2 65 3.4 CALM 0 0 0 0 1019.8 1019.5 0.2
25/10:00pm 15.9 15.5 8.2 60 3.9 CALM 0 4 0 2 1019.7 1019.4 0.2
25/09:30pm 16.7 14.7 7.1 53 4.8 WSW 7 7 4 4 1019.4 1019.1 0.2
25/09:00pm 16.8 14.4 6.9 52 4.9 SW 9 11 5 6 1019.3 1019.0 0.2
25/08:30pm 18.1 14.7 6.0 45 6.0 WSW 13 15 7 8 1019.0 1018.7 0.2
25/08:00pm 20.5 16.7 3.7 33 8.0 WSW 13 15 7 8 1018.8 1018.5 0.2
25/07:30pm 22.2 17.8 2.8 28 9.3 WSW 15 19 8 10 1018.6 1018.3 0.2
25/07:00pm 22.8 18.4 2.8 27 9.6 W 15 22 8 12 1018.4 1018.1 0.2
25/06:30pm 23.0 16.8 1.9 25 10.0 SW 24 26 13 14 1018.2 1017.9 0.2
25/06:00pm 23.2 17.8 2.7 26 9.8 W 20 30 11 16 1018.1 1017.8 0.2
25/05:30pm 23.2 18.8 2.7 26 9.8 WSW 15 28 8 15 1018.2 1017.9 0.2
25/05:00pm 23.5 19.1 4.5 29 9.4 WSW 17 24 9 13 1018.3 1018.0 0.2
25/04:30pm 23.2 18.8 4.7 30 9.2 WNW 17 26 9 14 1018.5 1018.2 0.2
25/04:00pm 22.7 19.3 4.2 30 9.1 WSW 11 20 6 11 1018.7 1018.4 0.2
25/03:30pm 22.3 17.3 3.4 29 9.1 WSW 19 30 10 16 1018.9 1018.6 0.2
25/03:00pm 22.0 17.2 4.6 32 8.6 SSW 19 24 10 13 1019.0 1018.7 0.2
25/02:30pm 21.2 16.5 3.0 30 8.6 W 17 30 9 16 1019.1 1018.8 0.2
25/02:00pm 20.8 16.3 4.0 33 8.1 WSW 17 32 9 17 1019.4 1019.1 0.2
25/01:30pm 20.3 16.2 6.3 40 7.0 W 17 35 9 19 1019.6 1019.3 0.2
25/01:00pm 19.7 16.0 7.8 46 6.1 SW 17 24 9 13 1019.9 1019.6 0.2
25/12:30pm 19.3 14.4 4.3 37 7.2 SW 19 33 10 18 1020.2 1019.9 0.2
25/12:00pm 18.5 14.2 5.4 42 6.4 SW 17 30 9 16 1020.5 1020.2 0.2
25/11:30am 17.8 13.2 5.4 44 6.0 SW 19 28 10 15 1020.6 1020.3 0.2
25/11:00am 17.2 13.1 6.1 48 5.4 S 17 22 9 12 1020.5 1020.2 0.2
25/10:30am 16.2 11.6 6.3 52 4.8 SW 20 30 11 16 1020.6 1020.3 0.0
25/10:00am 16.3 11.7 6.7 53 4.7 SW 20 30 11 16 1020.5 1020.2 0.0
25/09:30am 15.8 11.3 6.8 55 4.4 SW 20 28 11 15 1020.3 1020.0 0.0
25/09:00am 14.4 10.1 7.2 62 3.5 SW 19 24 10 13 1020.1 1019.8 29.2
25/08:30am 13.4 9.0 7.4 67 2.9 SW 20 26 11 14 1020.0 1019.7 29.2
25/08:00am 12.1 8.6 7.4 73 2.3 WSW 15 20 8 11 1019.6 1019.3 29.2
25/07:30am 11.1 7.6 7.2 77 1.9 WSW 15 20 8 11 1019.3 1019.0 29.2
25/07:00am 10.6 7.3 6.6 76 1.9 W 13 17 7 9 1018.8 1018.5 29.2
25/06:30am 9.4 6.2 6.8 84 1.2 WSW 13 15 7 8 1018.4 1018.1 29.2
25/06:00am 9.7 6.2 7.3 85 1.1 W 15 19 8 10 1017.8 1017.5 29.2
25/05:30am 10.0 6.8 8.4 90 0.8 WSW 15 19 8 10 1017.4 1017.1 29.2
25/05:00am 10.0 7.3 8.9 93 0.5 W 13 15 7 8 1016.9 1016.6 29.2
25/04:30am 10.3 8.0 9.1 92 0.6 W 11 15 6 8 1016.7 1016.4 29.2
25/04:00am 10.5 8.4 9.7 95 0.4 W 11 15 6 8 1016.5 1016.2 29.2
25/03:30am 10.2 7.6 9.3 94 0.4 W 13 15 7 8 1016.4 1016.1 29.2
25/03:00am 10.2 8.4 9.3 94 0.4 WSW 9 11 5 6 1016.2 1015.9 29.2
25/02:30am 10.9 9.1 9.3 90 0.8 W 9 15 5 8 1016.2 1015.9 29.2
25/02:00am 11.3 8.8 9.6 89 0.9 WSW 13 13 7 7 1015.9 1015.6 29.2
25/01:30am 12.1 9.2 9.5 84 1.3 SW 15 19 8 10 1015.7 1015.4 29.2
25/01:00am 12.8 8.9 9.3 79 1.8 SSW 20 28 11 15 1015.4 1015.2 29.2
25/12:30am 13.1 9.4 9.4 78 1.9 SW 19 24 10 13 1015.0 1014.8 29.2
25/12:00am 13.6 9.4 9.6 77 2.1 SSW 22 28 12 15 1014.7 1014.5 29.2
 
Date/Time
EDT
Temp
°C
App
Temp
°C
Dew
Point
Rel
Hum
%
Delta-T
°C
Wind Press
QNH
hPa
Press
MSL
hPa
Rain
since 9 am
mm
Dir
 
Spd
km/h
Gust
km/h
Spd
kts
Gust
kts
24/11:30pm 14.0 9.1 9.8 76 2.2 SSW 26 30 14 16 1014.3 1014.1 29.2
24/11:00pm 14.6 9.8 10.2 75 2.3 SSW 26 33 14 18 1013.9 1013.7 29.2
24/10:30pm 15.2 10.6 11.2 77 2.1 SSW 26 33 14 18 1013.4 1013.2 29.2
24/10:00pm 15.8 9.2 11.4 75 2.4 SW 37 50 20 27 1012.5 1012.3 29.2
24/09:30pm 16.4 8.7 12.0 75 2.4 SW 44 65 24 35 1011.7 1011.4 29.2
24/09:17pm 18.3 11.1 13.6 74 2.7 SW 44 65 24 35 1011.1 1010.8 29.2
24/09:15pm 19.0 12.7 14.7 76 2.5 WSW 41 50 22 27 1010.9 1010.6 29.2
24/09:00pm 19.4 17.9 16.2 82 1.9 SW 19 24 10 13 1010.4 1010.1 29.2
24/08:30pm 19.4 18.0 15.5 78 2.3 WSW 17 20 9 11 1009.9 1009.6 29.2
24/08:00pm 20.1 18.2 15.1 73 3.0 W 19 28 10 15 1009.4 1009.1 29.2
24/07:30pm 20.2 18.3 16.8 81 2.1 W 22 30 12 16 1008.5 1008.2 29.2
24/07:00pm 19.7 18.2 18.5 93 0.8 WSW 24 32 13 17 1007.6 1007.3 29.2
24/06:30pm 20.0 19.6 19.0 94 0.6 WSW 19 32 10 17 1007.5 1007.2 29.0
24/06:18pm 20.6 19.3 20.6 100 0.0 W 28 39 15 21 1008.4 1008.1 27.2
24/06:00pm 19.9 - - - - W 17 20 9 11 1006.8 1006.5 25.2
24/05:30pm 20.4 19.3 19.4 94 0.6 N 24 32 13 17 1006.6 1006.3 14.0
24/05:00pm 21.4 24.1 20.7 96 0.5 WNW 7 11 4 6 1005.2 1004.9 13.0

Other Formats:

Comma delimited format used in spreadsheet applications
http://www.bom.gov.au/fwo/IDN60801/IDN60801.95869.axf

JavaScript Object Notation format (JSON) in row-major order
http://www.bom.gov.au/fwo/IDN60801/IDN60801.95869.json